createdAt,value
2024-04-04T00:00:15.543Z,65.63
2024-04-04T00:03:02.684Z,65.61
2024-04-04T00:05:30.617Z,65.68
2024-04-04T00:07:57.790Z,65.66
2024-04-04T00:10:25.710Z,65.63
2024-04-04T00:12:54.126Z,65.77
2024-04-04T00:15:22.248Z,65.78
2024-04-04T00:17:49.402Z,65.79
2024-04-04T00:20:17.128Z,65.79
2024-04-04T00:22:45.459Z,65.56
2024-04-04T00:25:14.618Z,65.50
2024-04-04T00:27:41.794Z,65.70
2024-04-04T00:30:10.198Z,65.60
2024-04-04T00:32:37.412Z,65.58
2024-04-04T00:35:04.972Z,65.51
2024-04-04T00:37:32.165Z,65.58
2024-04-04T00:39:59.356Z,65.51
2024-04-04T00:42:26.654Z,65.57
2024-04-04T00:44:53.849Z,65.52
2024-04-04T00:47:21.324Z,65.66
2024-04-04T00:49:48.880Z,65.84
2024-04-04T00:52:16.384Z,65.73
2024-04-04T00:54:43.836Z,65.82
2024-04-04T00:57:11.031Z,65.82
2024-04-04T00:59:39.507Z,65.87
2024-04-04T01:02:06.980Z,65.83
2024-04-04T01:04:34.227Z,65.89
2024-04-04T01:07:01.634Z,65.90
2024-04-04T01:09:28.846Z,65.97
2024-04-04T01:11:55.984Z,65.73
2024-04-04T01:14:23.297Z,65.82
2024-04-04T01:16:50.475Z,65.87
2024-04-04T01:19:17.778Z,65.70
2024-04-04T01:21:45.246Z,65.82
2024-04-04T01:24:12.441Z,65.74
2024-04-04T01:26:39.588Z,65.74
2024-04-04T01:29:06.985Z,65.77
2024-04-04T01:31:34.209Z,65.73
2024-04-04T01:34:01.568Z,65.72
2024-04-04T01:36:28.769Z,65.72
2024-04-04T01:38:57.716Z,65.81
2024-04-04T01:41:24.961Z,65.81
2024-04-04T01:43:52.197Z,65.83
2024-04-04T01:46:19.422Z,65.80
2024-04-04T01:48:46.600Z,65.91
2024-04-04T01:51:15.240Z,65.94
2024-04-04T01:53:42.442Z,65.88
2024-04-04T01:56:09.596Z,65.93
2024-04-04T01:58:36.757Z,65.97
2024-04-04T02:01:04.218Z,65.96
2024-04-04T02:03:31.402Z,65.97
2024-04-04T02:05:58.582Z,65.91
2024-04-04T02:08:25.790Z,66.04
2024-04-04T02:10:53.114Z,66.00
2024-04-04T02:13:20.564Z,66.01
2024-04-04T02:15:48.228Z,66.04
2024-04-04T02:18:16.499Z,66.01
2024-04-04T02:20:47.012Z,66.04
2024-04-04T02:23:14.313Z,66.17
2024-04-04T02:25:41.482Z,66.25
2024-04-04T02:28:08.637Z,66.37
2024-04-04T02:30:35.912Z,66.39
2024-04-04T02:33:03.383Z,66.47
2024-04-04T02:35:30.621Z,66.52
2024-04-04T02:37:58.326Z,66.41
2024-04-04T02:40:25.481Z,66.45
2024-04-04T02:42:53.515Z,66.49
2024-04-04T02:45:23.011Z,66.54
2024-04-04T02:47:50.213Z,66.53
2024-04-04T02:50:17.834Z,66.47
2024-04-04T02:52:46.224Z,66.47
2024-04-04T02:55:13.565Z,66.38
2024-04-04T02:57:41.019Z,66.43
2024-04-04T03:00:11.926Z,66.51
2024-04-04T03:02:39.100Z,66.47
2024-04-04T03:05:06.963Z,66.63
2024-04-04T03:07:34.123Z,66.47
2024-04-04T03:10:02.005Z,66.42
2024-04-04T03:12:31.327Z,66.53
2024-04-04T03:14:58.977Z,66.44
2024-04-04T03:17:28.301Z,66.56
2024-04-04T03:19:55.517Z,66.57
2024-04-04T03:22:22.692Z,66.48
2024-04-04T03:24:49.903Z,66.63
2024-04-04T03:27:17.134Z,66.58
2024-04-04T03:29:44.326Z,66.54
2024-04-04T03:32:11.527Z,66.55
2024-04-04T03:34:38.761Z,66.52
2024-04-04T03:37:05.968Z,66.54
2024-04-04T03:39:33.110Z,66.62
2024-04-04T03:42:00.376Z,66.56
2024-04-04T03:44:27.555Z,66.58
2024-04-04T03:46:54.794Z,66.54
2024-04-04T03:49:21.954Z,66.72
2024-04-04T03:51:49.300Z,66.72
2024-04-04T03:54:17.405Z,66.62
2024-04-04T03:56:52.552Z,66.58
2024-04-04T03:59:24.510Z,66.66
2024-04-04T04:01:52.771Z,66.68
2024-04-04T04:04:20.242Z,66.69
2024-04-04T04:06:47.379Z,66.73
2024-04-04T04:09:14.544Z,66.68
2024-04-04T04:11:41.706Z,66.68
2024-04-04T04:14:09.306Z,66.61
2024-04-04T04:16:36.881Z,66.77
2024-04-04T04:19:04.133Z,66.84
2024-04-04T04:21:31.449Z,66.70
2024-04-04T04:24:01.115Z,66.76
2024-04-04T04:26:29.200Z,66.98
2024-04-04T04:28:56.458Z,67.19
2024-04-04T04:31:29.016Z,67.09
2024-04-04T04:34:01.324Z,67.10
2024-04-04T04:36:32.266Z,67.07
2024-04-04T04:38:59.555Z,67.11
2024-04-04T04:41:26.850Z,67.23
2024-04-04T04:43:54.057Z,67.26
2024-04-04T04:46:21.535Z,67.22
2024-04-04T04:48:48.723Z,67.26
2024-04-04T04:51:15.910Z,67.34
2024-04-04T04:53:43.149Z,67.43
2024-04-04T04:56:11.510Z,67.40
2024-04-04T04:58:38.720Z,67.40
2024-04-04T05:01:06.371Z,67.43
2024-04-04T05:03:33.513Z,67.38
2024-04-04T05:06:01.381Z,67.50
2024-04-04T05:08:28.569Z,67.63
2024-04-04T05:10:55.748Z,67.52
2024-04-04T05:13:22.892Z,67.56
2024-04-04T05:15:54.524Z,67.52
2024-04-04T05:18:23.120Z,67.51
2024-04-04T05:20:58.614Z,67.57
2024-04-04T05:23:26.107Z,67.63
2024-04-04T05:25:53.802Z,67.55
2024-04-04T05:28:26.721Z,67.38
2024-04-04T05:30:54.927Z,67.43
2024-04-04T05:33:22.217Z,67.65
2024-04-04T05:35:49.478Z,67.76
2024-04-04T05:38:16.938Z,67.76
2024-04-04T05:40:44.245Z,67.76
2024-04-04T05:43:12.038Z,67.64
2024-04-04T05:45:39.420Z,67.67
2024-04-04T05:48:07.135Z,67.61
2024-04-04T05:50:37.306Z,67.71
2024-04-04T05:53:04.697Z,67.82
2024-04-04T05:55:33.312Z,67.79
2024-04-04T05:58:01.846Z,67.95
2024-04-04T06:00:29.280Z,67.90
2024-04-04T06:03:01.335Z,68.06
2024-04-04T06:05:29.039Z,68.04
2024-04-04T06:07:57.846Z,67.88
2024-04-04T06:10:25.156Z,68.01
2024-04-04T06:12:52.342Z,67.98
2024-04-04T06:15:19.535Z,68.19
2024-04-04T06:17:46.801Z,68.25
2024-04-04T06:20:14.898Z,68.10
2024-04-04T06:22:42.104Z,68.01
2024-04-04T06:25:09.422Z,68.20
2024-04-04T06:27:36.705Z,68.32
2024-04-04T06:30:04.570Z,68.27
2024-04-04T06:32:31.948Z,68.28
2024-04-04T06:34:59.364Z,68.15
2024-04-04T06:37:30.169Z,68.00
2024-04-04T06:39:57.475Z,68.24
2024-04-04T06:42:24.818Z,68.26
2024-04-04T06:44:52.901Z,68.20
2024-04-04T06:47:20.185Z,68.04
2024-04-04T06:49:47.525Z,68.18
2024-04-04T06:52:14.871Z,68.18
2024-04-04T06:54:42.183Z,68.25
2024-04-04T06:57:11.616Z,68.17
2024-04-04T06:59:40.403Z,67.77
2024-04-04T07:02:08.080Z,67.24
2024-04-04T07:04:35.332Z,67.39
2024-04-04T07:07:02.559Z,67.76
2024-04-04T07:09:29.705Z,67.70
2024-04-04T07:11:56.971Z,67.70
2024-04-04T07:14:24.421Z,67.79
2024-04-04T07:16:53.346Z,68.03
2024-04-04T07:19:20.615Z,67.98
2024-04-04T07:21:50.042Z,67.96
2024-04-04T07:24:17.222Z,67.80
2024-04-04T07:26:49.269Z,67.87
2024-04-04T07:29:16.548Z,68.07
2024-04-04T07:31:43.929Z,68.00
2024-04-04T07:34:14.958Z,68.07
2024-04-04T07:36:42.947Z,68.11
2024-04-04T07:39:10.360Z,68.23
2024-04-04T07:41:38.027Z,68.12
2024-04-04T07:44:05.271Z,68.17
2024-04-04T07:46:32.493Z,68.08
2024-04-04T07:49:00.255Z,68.97
2024-04-04T07:51:27.897Z,68.35
2024-04-04T07:53:57.878Z,68.76
2024-04-04T07:56:25.048Z,68.64
2024-04-04T07:58:52.301Z,68.94
2024-04-04T08:01:22.019Z,68.27
2024-04-04T08:03:50.736Z,68.03
2024-04-04T08:06:18.121Z,68.07
2024-04-04T08:08:45.348Z,68.09
2024-04-04T08:11:16.981Z,68.33
2024-04-04T08:13:44.522Z,68.17
2024-04-04T08:16:11.770Z,68.24
2024-04-04T08:18:39.110Z,68.44
2024-04-04T08:21:06.605Z,68.52
2024-04-04T08:23:34.657Z,68.63
2024-04-04T08:26:01.870Z,68.68
2024-04-04T08:28:30.115Z,68.75
2024-04-04T08:30:58.868Z,68.82
2024-04-04T08:33:27.070Z,68.64
2024-04-04T08:35:55.279Z,68.58
2024-04-04T08:38:22.843Z,68.55
2024-04-04T08:40:50.441Z,68.62
2024-04-04T08:43:17.804Z,68.56
2024-04-04T08:45:49.762Z,68.60
2024-04-04T08:48:19.237Z,68.75
2024-04-04T08:50:51.015Z,68.94
2024-04-04T08:53:23.304Z,69.05
2024-04-04T08:55:52.201Z,69.12
2024-04-04T08:58:19.538Z,68.86
2024-04-04T09:00:47.197Z,68.90
2024-04-04T09:03:16.757Z,69.20
2024-04-04T09:05:49.694Z,69.26
2024-04-04T09:08:17.580Z,69.47
2024-04-04T09:10:53.768Z,69.37
2024-04-04T09:13:26.207Z,69.33
2024-04-04T09:16:00.762Z,69.10
2024-04-04T09:18:28.584Z,69.13
2024-04-04T09:21:00.318Z,69.07
2024-04-04T09:23:30.853Z,69.11
2024-04-04T09:25:59.680Z,69.27
2024-04-04T09:28:29.180Z,69.35
2024-04-04T09:31:00.649Z,69.40
2024-04-04T09:33:30.013Z,69.38
2024-04-04T09:35:59.313Z,69.20
2024-04-04T09:38:28.018Z,69.19
2024-04-04T09:40:56.731Z,68.93
2024-04-04T09:43:27.100Z,68.92
2024-04-04T09:45:57.297Z,69.15
2024-04-04T09:48:32.630Z,69.36
2024-04-04T09:51:07.268Z,69.46
2024-04-04T09:53:37.792Z,69.54
2024-04-04T09:56:06.438Z,69.45
2024-04-04T09:58:34.796Z,69.42
2024-04-04T10:01:21.935Z,69.32
2024-04-04T10:03:53.194Z,69.33
2024-04-04T10:06:37.391Z,69.30
2024-04-04T10:09:22.288Z,69.01
2024-04-04T10:11:50.970Z,69.08
2024-04-04T10:14:22.774Z,69.09
2024-04-04T10:16:54.232Z,69.15
2024-04-04T10:19:24.660Z,69.09
2024-04-04T10:21:51.924Z,69.08
2024-04-04T10:24:24.357Z,68.89
2024-04-04T10:26:53.378Z,68.94
2024-04-04T10:29:30.636Z,68.80
2024-04-04T10:32:04.991Z,68.50
2024-04-04T10:34:34.361Z,68.57
2024-04-04T10:37:01.990Z,68.75
2024-04-04T10:39:32.498Z,68.99
2024-04-04T10:42:00.810Z,69.25
2024-04-04T10:44:28.620Z,69.61
2024-04-04T10:46:57.347Z,69.69
2024-04-04T10:49:29.176Z,69.44
2024-04-04T10:51:59.518Z,69.70
2024-04-04T10:54:28.791Z,70.13
2024-04-04T10:56:57.651Z,70.15
2024-04-04T10:59:25.785Z,69.39
2024-04-04T11:01:56.123Z,68.18
2024-04-04T11:04:25.306Z,67.45
2024-04-04T11:06:53.001Z,67.10
2024-04-04T11:09:23.178Z,67.49
2024-04-04T11:11:52.193Z,67.28
2024-04-04T11:14:19.872Z,67.08
2024-04-04T11:16:47.437Z,67.08
2024-04-04T11:19:14.990Z,66.57
2024-04-04T11:21:42.244Z,66.46
2024-04-04T11:24:09.656Z,66.16
2024-04-04T11:26:36.794Z,66.14
2024-04-04T11:29:04.320Z,66.36
2024-04-04T11:31:31.557Z,67.73
2024-04-04T11:33:59.281Z,67.20
2024-04-04T11:36:26.549Z,66.09
2024-04-04T11:38:53.750Z,65.69
2024-04-04T11:41:21.166Z,65.85
2024-04-04T11:43:48.383Z,65.63
2024-04-04T11:46:16.496Z,65.84
2024-04-04T11:48:44.246Z,65.68
2024-04-04T11:51:12.225Z,65.58
2024-04-04T11:53:39.455Z,65.63
2024-04-04T11:56:07.656Z,65.55
2024-04-04T11:58:36.841Z,65.47
2024-04-04T12:01:04.322Z,65.57
2024-04-04T12:03:31.622Z,65.46
2024-04-04T12:05:59.646Z,65.56
2024-04-04T12:08:29.987Z,65.74
2024-04-04T12:11:01.474Z,65.50
2024-04-04T12:13:28.696Z,65.66
2024-04-04T12:15:58.846Z,65.57
2024-04-04T12:18:41.993Z,65.59
2024-04-04T12:21:15.377Z,66.23
2024-04-04T12:23:47.176Z,66.66
2024-04-04T12:26:17.764Z,66.25
2024-04-04T12:28:45.004Z,66.35
2024-04-04T12:31:13.602Z,66.60
2024-04-04T12:33:40.828Z,66.28
2024-04-04T12:36:08.092Z,66.31
2024-04-04T12:38:35.316Z,66.25
2024-04-04T12:41:03.415Z,65.99
2024-04-04T12:43:30.612Z,66.00
2024-04-04T12:46:05.258Z,66.10
2024-04-04T12:48:33.417Z,66.01
2024-04-04T12:51:01.415Z,66.23
2024-04-04T12:53:28.662Z,66.43
2024-04-04T12:55:56.412Z,67.06
2024-04-04T12:58:23.704Z,67.45
2024-04-04T13:00:59.258Z,67.62
2024-04-04T13:03:30.902Z,67.26
2024-04-04T13:05:58.769Z,66.88
2024-04-04T13:08:26.152Z,66.90
2024-04-04T13:10:53.310Z,66.74
2024-04-04T13:13:21.264Z,66.68
2024-04-04T13:15:48.709Z,66.90
2024-04-04T13:18:15.888Z,67.60
2024-04-04T13:20:43.098Z,68.53
2024-04-04T13:23:10.282Z,68.67
2024-04-04T13:25:37.588Z,68.92
2024-04-04T13:28:06.274Z,68.36
2024-04-04T13:30:33.574Z,66.94
2024-04-04T13:33:00.904Z,66.41
2024-04-04T13:35:28.355Z,66.18
2024-04-04T13:37:55.546Z,65.19
2024-04-04T13:40:22.805Z,63.73
2024-04-04T13:42:50.146Z,62.74
2024-04-04T13:45:17.434Z,62.24
2024-04-04T13:47:44.755Z,62.36
2024-04-04T13:50:12.067Z,62.57
2024-04-04T13:52:39.247Z,62.73
2024-04-04T13:55:07.116Z,62.87
2024-04-04T13:57:34.988Z,62.98
2024-04-04T14:00:05.280Z,63.29
2024-04-04T14:02:32.838Z,63.39
2024-04-04T14:05:00.171Z,63.78
2024-04-04T14:07:27.960Z,64.51
2024-04-04T14:09:56.523Z,64.30
2024-04-04T14:12:24.713Z,63.39
2024-04-04T14:14:52.250Z,63.45
2024-04-04T14:17:19.417Z,63.43
2024-04-04T14:19:46.618Z,63.51
2024-04-04T14:22:13.963Z,63.70
2024-04-04T14:24:41.362Z,63.32
2024-04-04T14:27:08.586Z,63.16
2024-04-04T14:29:36.149Z,63.36
2024-04-04T14:32:03.816Z,63.72
2024-04-04T14:34:31.031Z,63.86
2024-04-04T14:36:59.257Z,64.26
2024-04-04T14:39:28.978Z,63.52
2024-04-04T14:41:56.841Z,63.62
2024-04-04T14:44:24.083Z,63.62
2024-04-04T14:46:51.429Z,62.46
2024-04-04T14:49:19.704Z,61.90
2024-04-04T14:51:51.574Z,61.11
2024-04-04T14:54:21.268Z,60.43
2024-04-04T14:56:48.770Z,60.41
2024-04-04T14:59:15.987Z,60.79
2024-04-04T15:01:43.290Z,60.91
2024-04-04T15:04:10.528Z,61.17
2024-04-04T15:06:37.789Z,61.50
2024-04-04T15:09:06.490Z,60.63
2024-04-04T15:11:34.523Z,60.11
2024-04-04T15:14:02.849Z,59.65
2024-04-04T15:16:30.065Z,59.29
2024-04-04T15:18:57.297Z,58.97
2024-04-04T15:21:24.650Z,59.64
2024-04-04T15:23:51.840Z,59.62
2024-04-04T15:26:19.034Z,59.37
2024-04-04T15:28:46.270Z,58.94
2024-04-04T15:31:14.127Z,58.40
2024-04-04T15:33:41.280Z,58.61
2024-04-04T15:36:08.532Z,58.75
2024-04-04T15:38:35.710Z,57.62
2024-04-04T15:41:03.021Z,56.77
2024-04-04T15:43:30.212Z,56.62
2024-04-04T15:45:57.390Z,56.50
2024-04-04T15:48:24.873Z,56.55
2024-04-04T15:50:52.114Z,56.67
2024-04-04T15:53:19.726Z,56.60
2024-04-04T15:55:47.819Z,56.77
2024-04-04T15:58:15.209Z,56.87
2024-04-04T16:00:42.857Z,56.84
2024-04-04T16:03:10.053Z,56.97
2024-04-04T16:05:38.948Z,57.11
2024-04-04T16:08:06.882Z,57.21
2024-04-04T16:10:34.091Z,57.39
2024-04-04T16:13:01.932Z,57.52
2024-04-04T16:15:29.587Z,57.72
2024-04-04T16:17:56.756Z,57.86
2024-04-04T16:20:23.958Z,58.01
2024-04-04T16:22:51.087Z,57.93
2024-04-04T16:25:18.703Z,58.23
2024-04-04T16:27:45.932Z,58.39
2024-04-04T16:30:13.115Z,58.38
2024-04-04T16:32:40.394Z,58.52
2024-04-04T16:35:07.655Z,58.54
2024-04-04T16:37:35.365Z,58.75
2024-04-04T16:40:02.611Z,58.72
2024-04-04T16:42:29.859Z,58.86
2024-04-04T16:44:57.047Z,58.94
2024-04-04T16:47:24.406Z,59.02
2024-04-04T16:49:51.589Z,59.21
2024-04-04T16:52:18.788Z,59.27
2024-04-04T16:54:46.050Z,59.42
2024-04-04T16:57:13.236Z,59.48
2024-04-04T16:59:42.430Z,59.61
2024-04-04T17:02:09.678Z,59.77
2024-04-04T17:04:36.846Z,59.88
2024-04-04T17:07:04.882Z,59.87
2024-04-04T17:09:32.158Z,59.89
2024-04-04T17:11:59.308Z,59.92
2024-04-04T17:14:27.360Z,60.02
2024-04-04T17:16:54.569Z,60.26
2024-04-04T17:19:22.213Z,60.30
2024-04-04T17:21:49.492Z,60.50
2024-04-04T17:24:16.686Z,60.45
2024-04-04T17:26:46.292Z,60.56
2024-04-04T17:29:13.497Z,60.55
2024-04-04T17:31:42.215Z,60.68
2024-04-04T17:34:09.575Z,60.87
2024-04-04T17:36:39.271Z,60.89
2024-04-04T17:39:07.649Z,60.99
2024-04-04T17:41:34.903Z,61.00
2024-04-04T17:44:04.107Z,61.15
2024-04-04T17:46:31.667Z,61.14
2024-04-04T17:49:01.271Z,61.38
2024-04-04T17:51:28.482Z,61.41
2024-04-04T17:53:55.650Z,61.51
2024-04-04T17:56:22.822Z,61.58
2024-04-04T17:58:50.274Z,61.57
2024-04-04T18:01:17.833Z,61.65
2024-04-04T18:03:45.579Z,61.72
2024-04-04T18:06:12.812Z,61.87
2024-04-04T18:08:40.236Z,61.89
2024-04-04T18:11:07.480Z,61.97
2024-04-04T18:13:37.152Z,62.03
2024-04-04T18:16:04.570Z,62.11
2024-04-04T18:18:32.227Z,62.36
2024-04-04T18:20:59.500Z,62.47
2024-04-04T18:23:26.708Z,62.58
2024-04-04T18:25:53.880Z,62.49
2024-04-04T18:28:21.055Z,62.57
2024-04-04T18:30:50.877Z,62.74
2024-04-04T18:33:18.091Z,62.85
2024-04-04T18:35:45.300Z,62.85
2024-04-04T18:38:12.542Z,62.85
2024-04-04T18:40:39.800Z,63.11
2024-04-04T18:43:06.984Z,63.22
2024-04-04T18:45:34.819Z,63.27
2024-04-04T18:48:02.080Z,63.34
2024-04-04T18:50:30.682Z,63.41
2024-04-04T18:52:58.090Z,63.58
2024-04-04T18:55:25.529Z,63.66
2024-04-04T18:57:52.767Z,63.82
2024-04-04T19:00:20.275Z,63.93
2024-04-04T19:02:47.484Z,63.96
2024-04-04T19:05:14.884Z,64.15
2024-04-04T19:07:42.205Z,64.21
2024-04-04T19:10:09.475Z,64.23
2024-04-04T19:12:36.771Z,64.36
2024-04-04T19:15:06.834Z,64.43
2024-04-04T19:17:34.079Z,64.51
2024-04-04T19:20:05.633Z,64.59
2024-04-04T19:22:32.833Z,64.74
2024-04-04T19:24:59.986Z,64.80
2024-04-04T19:27:27.298Z,64.77
2024-04-04T19:29:54.930Z,64.84
2024-04-04T19:32:22.106Z,65.06
2024-04-04T19:34:49.273Z,64.96
2024-04-04T19:37:16.538Z,65.05
2024-04-04T19:39:43.761Z,65.17
2024-04-04T19:42:11.244Z,65.31
2024-04-04T19:44:38.425Z,65.17
2024-04-04T19:47:05.682Z,65.41
2024-04-04T19:49:33.527Z,65.52
2024-04-04T19:52:01.122Z,65.67
2024-04-04T19:54:28.414Z,65.66
2024-04-04T19:56:55.636Z,65.69
2024-04-04T19:59:24.390Z,65.88
2024-04-04T20:01:53.289Z,65.80
2024-04-04T20:04:20.476Z,66.00
2024-04-04T20:06:47.640Z,65.91
2024-04-04T20:09:14.814Z,66.11
2024-04-04T20:11:41.991Z,66.05
2024-04-04T20:14:09.143Z,66.23
2024-04-04T20:16:37.618Z,66.42
2024-04-04T20:19:04.863Z,66.40
2024-04-04T20:21:32.052Z,66.38
2024-04-04T20:23:59.217Z,66.58
2024-04-04T20:26:26.390Z,66.79
2024-04-04T20:28:55.107Z,66.73
2024-04-04T20:31:22.369Z,66.82
2024-04-04T20:33:50.535Z,66.87
2024-04-04T20:36:17.764Z,67.00
2024-04-04T20:38:44.942Z,66.92
2024-04-04T20:41:12.200Z,67.13
2024-04-04T20:43:39.441Z,67.18
2024-04-04T20:46:06.697Z,67.23
2024-04-04T20:48:34.188Z,67.31
2024-04-04T20:51:01.423Z,67.52
2024-04-04T20:53:28.766Z,67.54
2024-04-04T20:55:56.485Z,67.61
2024-04-04T20:58:24.697Z,67.57
2024-04-04T21:00:52.536Z,67.68
2024-04-04T21:03:19.748Z,67.73
2024-04-04T21:05:46.970Z,67.82
2024-04-04T21:08:14.520Z,67.79
2024-04-04T21:10:41.722Z,68.00
2024-04-04T21:13:08.936Z,67.97
2024-04-04T21:15:36.078Z,68.01
2024-04-04T21:18:10.649Z,68.05
2024-04-04T21:20:39.361Z,68.13
2024-04-04T21:23:06.555Z,68.17
2024-04-04T21:25:34.945Z,68.38
2024-04-04T21:28:02.526Z,68.36
2024-04-04T21:30:31.034Z,68.40
2024-04-04T21:32:58.308Z,68.50
2024-04-04T21:35:25.524Z,68.71
2024-04-04T21:37:52.686Z,68.67
2024-04-04T21:40:19.821Z,68.70
2024-04-04T21:42:47.007Z,68.87
2024-04-04T21:45:14.251Z,68.76
2024-04-04T21:47:41.572Z,69.01
2024-04-04T21:50:09.656Z,69.09
2024-04-04T21:52:36.843Z,69.03
2024-04-04T21:55:04.223Z,69.23
2024-04-04T21:57:33.917Z,69.14
2024-04-04T22:00:01.120Z,69.27
2024-04-04T22:02:28.361Z,69.46
2024-04-04T22:04:56.281Z,69.44
2024-04-04T22:07:23.457Z,69.53
2024-04-04T22:09:50.682Z,69.50
2024-04-04T22:12:17.850Z,69.61
2024-04-04T22:14:44.994Z,69.67
2024-04-04T22:17:13.724Z,69.72
2024-04-04T22:19:40.922Z,69.82
2024-04-04T22:22:08.115Z,69.87
2024-04-04T22:24:35.235Z,69.86
2024-04-04T22:27:02.501Z,69.99
2024-04-04T22:29:30.569Z,69.96
2024-04-04T22:31:57.725Z,69.83
2024-04-04T22:34:24.873Z,69.86
2024-04-04T22:36:53.213Z,69.92
2024-04-04T22:39:21.829Z,69.91
2024-04-04T22:41:48.954Z,69.74
2024-04-04T22:44:16.146Z,70.04
2024-04-04T22:46:43.892Z,69.92
2024-04-04T22:49:11.665Z,70.10
2024-04-04T22:51:38.862Z,70.05
2024-04-04T22:54:06.042Z,70.08
2024-04-04T22:56:33.198Z,70.02
2024-04-04T22:59:00.374Z,70.20
2024-04-04T23:01:27.537Z,70.28
2024-04-04T23:03:54.735Z,70.43
2024-04-04T23:06:22.068Z,70.54
2024-04-04T23:08:49.240Z,70.56
2024-04-04T23:11:16.418Z,70.49
2024-04-04T23:13:43.579Z,70.59
2024-04-04T23:16:10.780Z,70.52
2024-04-04T23:18:39.448Z,70.58
2024-04-04T23:21:06.590Z,70.62
2024-04-04T23:23:33.774Z,70.63
2024-04-04T23:26:00.918Z,70.67
2024-04-04T23:28:28.987Z,70.64
2024-04-04T23:30:56.653Z,70.83
2024-04-04T23:33:23.850Z,70.75
2024-04-04T23:35:53.217Z,70.69
2024-04-04T23:38:20.547Z,70.76
2024-04-04T23:40:48.018Z,70.86
2024-04-04T23:43:15.238Z,70.81
2024-04-04T23:45:42.422Z,71.09
2024-04-04T23:48:09.952Z,71.17
2024-04-04T23:50:37.066Z,71.33
2024-04-04T23:53:04.446Z,71.30
2024-04-04T23:55:31.718Z,71.41
2024-04-04T23:57:59.276Z,71.39
